createdAt,value
2019-05-19T00:03:33.584Z,100024.69
2019-05-19T00:08:56.296Z,100029.58
2019-05-19T00:14:19.211Z,100034.77
2019-05-19T00:19:42.743Z,100041.05
2019-05-19T00:25:06.812Z,100044.05
2019-05-19T00:30:30.147Z,100040.35
2019-05-19T00:35:52.890Z,100042.33
2019-05-19T00:41:16.121Z,100036.54
2019-05-19T00:46:39.921Z,100035.52
2019-05-19T00:52:03.469Z,100044.45
2019-05-19T00:57:27.418Z,100034.73
2019-05-19T01:02:50.585Z,100030.41
2019-05-19T01:08:14.169Z,100029.28
2019-05-19T01:13:37.590Z,100032.48
2019-05-19T01:19:00.434Z,100023.89
2019-05-19T01:24:23.969Z,100021.48
2019-05-19T01:29:47.255Z,100023.23
2019-05-19T01:35:11.169Z,100021.68
2019-05-19T01:40:34.708Z,100011.05
2019-05-19T01:45:58.065Z,100011.92
2019-05-19T01:51:21.598Z,100011.26
2019-05-19T01:56:44.833Z,100008.40
2019-05-19T02:02:08.087Z,100011.77
2019-05-19T02:07:30.879Z,100001.98
2019-05-19T02:12:53.962Z,100005.02
2019-05-19T02:18:17.256Z,100006.14
2019-05-19T02:23:40.168Z,100001.28
2019-05-19T02:29:02.943Z,100000.45
2019-05-19T02:34:26.344Z,99993.82
2019-05-19T02:39:49.299Z,99993.05
2019-05-19T02:45:13.766Z,100005.81
2019-05-19T02:50:51.772Z,100001.69
2019-05-19T02:56:06.157Z,99994.35
2019-05-19T03:01:29.340Z,99992.58
2019-05-19T03:06:52.616Z,99986.85
2019-05-19T03:12:16.241Z,99996.34
2019-05-19T03:17:39.009Z,99999.11
2019-05-19T03:23:02.127Z,100000.16
2019-05-19T03:28:25.055Z,100006.97
2019-05-19T03:33:52.870Z,100003.59
2019-05-19T03:39:15.442Z,100009.11
2019-05-19T03:44:38.513Z,100012.82
2019-05-19T03:50:01.866Z,100016.20
2019-05-19T03:55:25.192Z,100008.59
2019-05-19T04:00:48.850Z,100012.20
2019-05-19T04:06:12.316Z,100010.37
2019-05-19T04:11:35.902Z,100014.75
2019-05-19T04:16:59.110Z,100021.06
2019-05-19T04:22:22.407Z,100022.58
2019-05-19T04:27:46.032Z,100025.84
2019-05-19T04:33:09.256Z,100031.30
2019-05-19T04:38:32.530Z,100022.05
2019-05-19T04:43:56.121Z,100023.44
2019-05-19T04:49:19.792Z,100024.52
2019-05-19T04:54:43.299Z,100022.33
2019-05-19T05:00:07.502Z,100017.33
2019-05-19T05:05:31.187Z,100014.13
2019-05-19T05:10:54.261Z,100012.80
2019-05-19T05:16:17.331Z,100013.66
2019-05-19T05:21:40.611Z,100019.31
2019-05-19T05:27:03.590Z,100023.67
2019-05-19T05:32:26.705Z,100018.70
2019-05-19T05:37:50.297Z,100021.08
2019-05-19T05:43:13.726Z,100028.30
2019-05-19T05:48:37.319Z,100025.92
2019-05-19T05:54:00.628Z,100024.32
2019-05-19T05:59:23.614Z,100023.80
2019-05-19T06:04:47.099Z,100024.43
2019-05-19T06:10:10.602Z,100022.83
2019-05-19T06:15:33.309Z,100022.38
2019-05-19T06:20:56.467Z,100031.30
2019-05-19T06:26:19.599Z,100027.02
2019-05-19T06:31:43.025Z,100033.17
2019-05-19T06:37:06.235Z,100026.90
2019-05-19T06:42:29.808Z,100025.95
2019-05-19T06:47:52.679Z,100017.22
2019-05-19T06:53:16.274Z,100020.01
2019-05-19T06:58:39.569Z,100023.66
2019-05-19T07:04:03.108Z,100013.16
2019-05-19T07:09:26.900Z,100012.92
2019-05-19T07:14:50.437Z,100004.65
2019-05-19T07:20:13.846Z,100011.06
2019-05-19T07:25:37.491Z,100001.66
2019-05-19T07:31:00.765Z,100002.48
2019-05-19T07:36:24.389Z,100000.50
2019-05-19T07:41:47.991Z,99993.52
2019-05-19T07:47:11.196Z,99999.03
2019-05-19T07:52:33.767Z,99997.88
2019-05-19T07:57:57.394Z,99981.08
2019-05-19T08:03:21.178Z,99990.41
2019-05-19T08:08:44.815Z,99985.50
2019-05-19T08:14:07.828Z,99984.55
2019-05-19T08:19:31.287Z,99983.75
2019-05-19T08:24:54.082Z,99971.05
2019-05-19T08:30:17.214Z,99969.89
2019-05-19T08:35:40.628Z,99976.34
2019-05-19T08:41:03.880Z,99966.02
2019-05-19T08:46:27.053Z,99957.67
2019-05-19T08:51:50.332Z,99964.78
2019-05-19T08:57:13.969Z,99954.73
2019-05-19T09:02:37.055Z,99959.05
2019-05-19T09:08:00.650Z,99961.52
2019-05-19T09:13:24.196Z,99967.77
2019-05-19T09:18:47.579Z,99962.02
2019-05-19T09:24:10.613Z,99949.62
2019-05-19T09:29:34.056Z,99948.59
2019-05-19T09:34:57.401Z,99946.42
2019-05-19T09:40:20.775Z,99942.57
2019-05-19T09:45:43.978Z,99928.95
2019-05-19T09:51:07.256Z,99921.02
2019-05-19T09:56:31.242Z,99928.02
2019-05-19T10:01:55.025Z,99928.23
2019-05-19T10:07:18.415Z,99920.54
2019-05-19T10:12:41.663Z,99925.28
2019-05-19T10:18:05.085Z,99921.94
2019-05-19T10:23:28.785Z,99919.69
2019-05-19T10:28:51.978Z,99913.78
2019-05-19T10:34:15.219Z,99909.45
2019-05-19T10:39:38.830Z,99909.09
2019-05-19T10:45:02.307Z,99905.66
2019-05-19T10:50:25.904Z,99893.92
2019-05-19T10:55:49.623Z,99892.67
2019-05-19T11:01:12.634Z,99891.77
2019-05-19T11:06:36.078Z,99876.86
2019-05-19T11:11:58.738Z,99886.00
2019-05-19T11:17:22.079Z,99876.92
2019-05-19T11:22:45.617Z,99880.61
2019-05-19T11:28:09.022Z,99871.80
2019-05-19T11:33:32.641Z,99876.59
2019-05-19T11:38:56.117Z,99867.77
2019-05-19T11:44:19.733Z,99858.59
2019-05-19T11:49:43.278Z,99859.02
2019-05-19T11:55:06.854Z,99853.99
2019-05-19T12:00:30.511Z,99849.13
2019-05-19T12:05:53.838Z,99841.84
2019-05-19T12:11:17.205Z,99846.24
2019-05-19T12:16:40.681Z,99847.42
2019-05-19T12:22:03.887Z,99847.87
2019-05-19T12:27:27.527Z,99840.09
2019-05-19T12:32:51.258Z,99837.77
2019-05-19T12:38:14.483Z,99836.78
2019-05-19T12:43:38.066Z,99836.62
2019-05-19T12:49:01.310Z,99836.15
2019-05-19T12:54:24.565Z,99834.85
2019-05-19T12:59:47.261Z,99828.66
2019-05-19T13:05:11.428Z,99824.93
2019-05-19T13:10:34.682Z,99831.05
2019-05-19T13:15:57.966Z,99821.01
2019-05-19T13:21:21.474Z,99817.70
2019-05-19T13:26:56.130Z,99810.37
2019-05-19T13:32:10.102Z,99800.69
2019-05-19T13:37:33.707Z,99806.66
2019-05-19T13:42:57.334Z,99799.22
2019-05-19T13:48:20.349Z,99805.09
2019-05-19T13:53:43.625Z,99799.36
2019-05-19T13:59:07.237Z,99809.27
2019-05-19T14:04:31.234Z,99808.05
2019-05-19T14:09:54.345Z,99804.96
2019-05-19T14:15:18.428Z,99796.23
2019-05-19T14:20:41.994Z,99796.34
2019-05-19T14:26:05.437Z,99783.91
2019-05-19T14:31:28.741Z,99792.91
2019-05-19T14:36:51.637Z,99793.69
2019-05-19T14:42:16.536Z,99790.91
2019-05-19T14:47:39.436Z,99797.24
2019-05-19T14:53:02.604Z,99796.13
2019-05-19T14:58:26.171Z,99784.97
2019-05-19T15:03:49.362Z,99796.06
2019-05-19T15:09:12.628Z,99795.07
2019-05-19T15:14:36.115Z,99801.43
2019-05-19T15:19:59.384Z,99799.20
2019-05-19T15:25:22.612Z,99788.62
2019-05-19T15:30:46.424Z,99765.93
2019-05-19T15:36:09.902Z,99769.47
2019-05-19T15:41:33.763Z,99770.72
2019-05-19T15:46:57.162Z,99771.70
2019-05-19T15:52:19.964Z,99773.81
2019-05-19T15:57:43.473Z,99771.70
2019-05-19T16:03:08.325Z,99767.74
2019-05-19T16:08:31.754Z,99764.41
2019-05-19T16:13:55.343Z,99748.46
2019-05-19T16:19:18.662Z,99747.58
2019-05-19T16:24:42.078Z,99742.44
2019-05-19T16:30:07.157Z,99745.05
2019-05-19T16:35:30.541Z,99743.05
2019-05-19T16:40:53.939Z,99741.09
2019-05-19T16:46:17.251Z,99741.81
2019-05-19T16:51:41.025Z,99739.56
2019-05-19T16:57:04.244Z,99734.55
2019-05-19T17:02:27.685Z,99735.44
2019-05-19T17:07:51.193Z,99733.78
2019-05-19T17:13:14.761Z,99726.09
2019-05-19T17:18:38.236Z,99727.19
2019-05-19T17:24:01.588Z,99730.93
2019-05-19T17:29:25.185Z,99728.58
2019-05-19T17:34:51.916Z,99727.36
2019-05-19T17:40:16.147Z,99721.31
2019-05-19T17:45:38.982Z,99729.41
2019-05-19T17:51:03.451Z,99726.13
2019-05-19T17:56:29.240Z,99721.38
2019-05-19T18:02:00.190Z,99720.39
2019-05-19T18:07:23.608Z,99713.82
2019-05-19T18:12:46.985Z,99718.48
2019-05-19T18:18:09.995Z,99725.48
2019-05-19T18:23:33.447Z,99734.26
2019-05-19T18:34:19.484Z,99730.91
2019-05-19T18:39:42.293Z,99739.67
2019-05-19T18:45:07.293Z,99746.95
2019-05-19T18:50:30.730Z,99752.64
2019-05-19T18:55:54.524Z,99749.37
2019-05-19T19:01:17.793Z,99748.64
2019-05-19T19:06:41.123Z,99759.81
2019-05-19T19:12:04.731Z,99765.06
2019-05-19T19:17:27.980Z,99774.84
2019-05-19T19:22:51.434Z,99776.34
2019-05-19T19:28:14.654Z,99782.60
2019-05-19T19:33:51.956Z,99785.47
2019-05-19T19:39:14.918Z,99774.75
2019-05-19T19:44:38.454Z,99760.06
2019-05-19T19:50:01.970Z,99752.60
2019-05-19T19:55:25.146Z,99757.87
2019-05-19T20:00:49.102Z,99753.50
2019-05-19T20:06:12.661Z,99751.06
2019-05-19T20:11:36.094Z,99749.97
2019-05-19T20:16:59.897Z,99755.36
2019-05-19T20:22:23.347Z,99749.77
2019-05-19T20:27:47.368Z,99756.81
2019-05-19T20:33:10.292Z,99765.45
2019-05-19T20:38:34.265Z,99769.93
2019-05-19T20:43:57.942Z,99765.45
2019-05-19T20:49:21.402Z,99762.50
2019-05-19T20:54:44.345Z,99758.63
2019-05-19T21:00:08.752Z,99765.67
2019-05-19T21:05:32.088Z,99765.38
2019-05-19T21:10:55.409Z,99763.42
2019-05-19T21:16:18.904Z,99751.76
2019-05-19T21:21:42.107Z,99747.81
2019-05-19T21:27:05.590Z,99751.98
2019-05-19T21:32:28.768Z,99766.19
2019-05-19T21:37:52.152Z,99767.64
2019-05-19T21:43:15.813Z,99768.01
2019-05-19T21:48:39.113Z,99771.19
2019-05-19T21:54:02.701Z,99769.84
2019-05-19T21:59:25.777Z,99766.31
2019-05-19T22:04:49.075Z,99778.00
2019-05-19T22:10:12.867Z,99763.07
2019-05-19T22:15:36.288Z,99763.45
2019-05-19T22:20:59.542Z,99760.41
2019-05-19T22:26:22.693Z,99761.56
2019-05-19T22:31:46.142Z,99752.73
2019-05-19T22:37:09.860Z,99760.29
2019-05-19T22:42:33.261Z,99749.80
2019-05-19T22:47:57.099Z,99740.98
2019-05-19T22:53:20.647Z,99746.00
2019-05-19T22:58:44.059Z,99745.71
2019-05-19T23:04:07.316Z,99736.84
2019-05-19T23:09:30.826Z,99742.44
2019-05-19T23:14:53.944Z,99751.02
2019-05-19T23:20:17.553Z,99756.84
2019-05-19T23:25:41.012Z,99744.99
2019-05-19T23:31:03.825Z,99741.42
2019-05-19T23:36:26.378Z,99739.25
2019-05-19T23:41:50.139Z,99731.22
2019-05-19T23:47:13.252Z,99716.51
2019-05-19T23:52:36.714Z,99721.75
2019-05-19T23:58:00.202Z,99722.08
